Strona główna
METAR-TAF:

METAR-TAF

Lotnisko :

Port lotniczy Harbin-Taiping

Harbin, Chiny

Szerokość geograficzna: 45-45N, Długość geograficzna: 126-46E, wysokość: 143 m

Aktualna obserwacja pogody

Raport powstał 46 minut temu, godzina 07:00 UTC
Wiatr 2 kt z kierunków zmiennych
Temperatura -4°C
Wilgotność 30%
Ciśnienie 1023 hPa
Widzialność 10 km lub więcej
Brak chmur poniżej 1500 m i brak chmur cumulonimbus

METAR: ZYHB 190700Z VRB01MPS CAVOK M04/M19 Q1023 NOSIG

czas: 15:46 (07:46 UTC)

Prognoza

Raport powstał 4 godziny i 17 minut temu, godzina 03:29 UTC
Prognoza ważna od 19 godzina 06 UTC do 20 godzina 06 UTC
Wiatr 8 kt od północny zachód
Widzialność: 6000 m
Rozproszone chmury na wysokości 3000 ft

TAF: ZYHB 190329Z 1906/2006 32004MPS 6000 SCT030 TXM01/06Z TNM11/21Z

Obserwacja i prognoza pogody dla ponad 4000 lotnisk (raport METAR i TAF).

Dostępne stacje oznaczono żółtymi i czerwonymi punktami na mapie.

Najedź kursorem aby zobaczyć nazwę stacji.

Kliknij aby zobaczyć obserwacje i prognozy pogody.

Aby zmienić mapę: kliknij na zielony przycisk z czarnym krzyżykiem, aby powiększyć; na zielony przycisk z myślnikiem, aby pomniejszyć; na zielone strzałki, aby przejść do map sąsiednich.


METAR-TAF: